Time;durP1;ratioP1;P1;durP2;ratioP2;P2;SDS_P1;SDS_P2;PMS_P1;PMS_P2;Temp;Humidity;BMP_temperature;BMP_pressure;BME280_temperature;BME280_humidity;BME280_pressure;Samples;Min_cycle;Max_cycle;Signal;HPM_P1;HPM_P2
2021/04/02 00:00:37;;;;;;;96.95;48.20;;;;;;;8.85;59.55;99036.54;114264;1193;64359;-75
2021/04/02 00:03:18;;;;;;;81.80;43.73;;;;;;;8.85;59.92;99036.54;114261;1193;64355;-74
2021/04/02 00:05:45;;;;;;;92.13;46.23;;;;;;;8.85;60.19;99035.69;114282;1193;64404;-77
2021/04/02 00:08:13;;;;;;;104.00;51.73;;;;;;;8.84;60.02;99028.63;114645;1193;64442;-78
2021/04/02 00:10:45;;;;;;;96.03;49.73;;;;;;;8.83;59.90;99037.58;114363;1192;64346;-75
2021/04/02 00:13:15;;;;;;;97.33;48.93;;;;;;;8.77;59.81;99033.50;114448;1193;64429;-74
2021/04/02 00:15:44;;;;;;;111.40;52.80;;;;;;;8.76;59.85;99030.94;114386;1193;64330;-78
2021/04/02 00:18:12;;;;;;;98.63;50.93;;;;;;;8.76;60.09;99028.28;114421;1192;64359;-76
2021/04/02 00:20:39;;;;;;;96.70;48.27;;;;;;;8.75;59.69;99031.91;114316;1193;64301;-76
2021/04/02 00:23:07;;;;;;;99.17;52.60;;;;;;;8.73;59.86;99018.70;114635;1193;64420;-80
2021/04/02 00:25:36;;;;;;;101.60;51.87;;;;;;;8.71;60.11;99023.24;114200;1193;64342;-81
2021/04/02 00:28:04;;;;;;;110.87;54.57;;;;;;;8.69;59.95;99022.50;114270;1193;64379;-79
2021/04/02 00:30:53;;;;;;;111.43;53.23;;;;;;;8.69;60.00;99027.83;114246;1193;64430;-78
2021/04/02 00:33:23;;;;;;;98.07;48.83;;;;;;;8.68;60.43;99025.27;114323;1193;64558;-75
2021/04/02 00:35:51;;;;;;;101.07;51.20;;;;;;;8.69;60.04;99025.16;114356;1193;64700;-75
2021/04/02 00:38:18;;;;;;;94.20;48.70;;;;;;;8.69;60.37;99025.16;114417;1193;64452;-75
2021/04/02 00:40:51;;;;;;;102.90;53.00;;;;;;;8.66;60.39;99017.39;114286;1193;64366;-81
2021/04/02 00:43:20;;;;;;;106.33;52.70;;;;;;;8.66;60.69;99018.24;114273;1192;64324;-80
2021/04/02 00:45:46;;;;;;;111.85;55.00;;;;;;;8.65;60.37;99012.99;114288;1193;64477;-76
2021/04/02 00:48:13;;;;;;;107.95;54.55;;;;;;;8.64;60.47;99011.29;114296;1193;64394;-79
2021/04/02 00:50:57;;;;;;;105.97;53.07;;;;;;;8.60;60.53;99015.13;114339;1192;64417;-74
2021/04/02 00:53:28;;;;;;;114.43;55.63;;;;;;;8.59;60.45;99024.07;114257;1193;64356;-77
2021/04/02 00:55:56;;;;;;;101.53;49.10;;;;;;;8.60;60.49;99023.11;114348;1193;64372;-75
2021/04/02 00:58:25;;;;;;;107.65;51.05;;;;;;;8.55;60.85;99018.08;114227;1193;64470;-76
2021/04/02 01:00:52;;;;;;;119.30;57.90;;;;;;;8.51;60.67;99011.23;114303;1193;64417;-76
2021/04/02 01:03:23;;;;;;;114.00;53.25;;;;;;;8.45;60.98;99019.60;114662;1193;64353;-77
2021/04/02 01:05:52;;;;;;;119.90;56.35;;;;;;;8.41;60.85;99017.27;114266;1193;64455;-79
2021/04/02 01:08:26;;;;;;;117.57;55.53;;;;;;;8.37;61.54;99014.78;114393;1192;64327;-76
2021/04/02 01:10:55;;;;;;;112.50;53.70;;;;;;;8.35;61.63;99015.81;114197;1192;64500;-75
2021/04/02 01:13:36;;;;;;;115.45;54.75;;;;;;;8.32;63.13;99016.84;114445;1193;64323;-78
2021/04/02 01:16:11;;;;;;;124.37;57.40;;;;;;;8.27;61.82;99010.98;114257;1192;64356;-77
2021/04/02 01:18:47;;;;;;;118.53;57.77;;;;;;;8.24;61.52;99018.28;114302;1192;64393;-77
2021/04/02 01:21:21;;;;;;;120.50;54.85;;;;;;;8.22;61.58;99020.20;114703;1192;64397;-77
2021/04/02 01:23:59;;;;;;;120.87;58.47;;;;;;;8.20;61.22;99024.73;114297;1193;64492;-77
2021/04/02 01:26:33;;;;;;;119.60;58.45;;;;;;;8.19;62.19;99025.70;114339;1192;64385;-75
2021/04/02 01:29:20;;;;;;;117.13;56.70;;;;;;;8.14;61.97;99036.61;114546;1193;64337;-76
2021/04/02 01:31:51;;;;;;;112.77;54.63;;;;;;;8.09;61.42;99031.61;114246;1193;64292;-77
2021/04/02 01:34:22;;;;;;;116.35;57.10;;;;;;;8.09;62.19;99036.07;114314;1193;64308;-75
2021/04/02 01:36:51;;;;;;;123.43;61.90;;;;;;;8.05;62.22;99030.08;114288;1192;64423;-76
2021/04/02 01:39:20;;;;;;;118.45;59.90;;;;;;;8.02;61.85;99029.42;114304;1193;64404;-76
2021/04/02 01:41:53;;;;;;;110.07;52.97;;;;;;;7.99;62.20;99038.43;114281;1193;64541;-78
2021/04/02 01:44:21;;;;;;;122.23;55.80;;;;;;;7.98;61.96;99035.88;114273;1193;64311;-77
2021/04/02 01:46:50;;;;;;;109.27;51.93;;;;;;;7.94;62.22;99043.17;114331;1192;64352;-75
2021/04/02 01:49:18;;;;;;;122.77;51.27;;;;;;;7.89;63.02;99039.08;114544;1193;64519;-78
2021/04/02 01:51:47;;;;;;;100.27;45.83;;;;;;;7.83;62.60;99049.16;114339;1193;64358;-79
2021/04/02 01:54:14;;;;;;;83.27;42.30;;;;;;;7.76;62.49;99050.49;114262;1192;64506;-76
2021/04/02 01:56:42;;;;;;;99.85;47.10;;;;;;;7.73;62.70;99055.98;114357;1193;64384;-77
2021/04/02 01:59:10;;;;;;;107.70;50.25;;;;;;;7.69;62.28;99053.59;114339;1193;64352;-76
2021/04/02 02:01:41;;;;;;;111.43;51.80;;;;;;;7.67;62.88;99053.69;114186;1193;64330;-77
2021/04/02 02:04:10;;;;;;;109.13;52.23;;;;;;;7.68;62.53;99058.05;114248;1193;64452;-78
2021/04/02 02:06:40;;;;;;;106.37;49.67;;;;;;;7.67;63.14;99055.49;114322;1193;64350;-77
2021/04/02 02:09:28;;;;;;;103.07;48.43;;;;;;;7.61;62.95;99064.69;114308;1192;64371;-75
2021/04/02 02:12:00;;;;;;;100.40;46.70;;;;;;;7.58;62.75;99067.55;114495;1193;64359;-76
2021/04/02 02:14:37;;;;;;;93.47;46.60;;;;;;;7.53;62.83;99058.98;114262;1193;64455;-76
2021/04/02 02:17:13;;;;;;;79.45;39.75;;;;;;;7.50;62.73;99069.77;114403;1193;64768;-75
2021/04/02 02:19:42;;;;;;;79.90;35.90;;;;;;;7.47;63.85;99067.31;114740;1192;64398;-76
2021/04/02 02:22:11;;;;;;;66.40;35.05;;;;;;;7.36;63.06;99072.40;114377;1193;64375;-76
2021/04/02 02:24:43;;;;;;;73.10;33.97;;;;;;;7.29;63.61;99070.10;114326;1193;64423;-77
2021/04/02 02:27:11;;;;;;;66.73;32.17;;;;;;;7.25;63.59;99078.33;114308;1193;64359;-78
2021/04/02 02:29:39;;;;;;;59.57;30.50;;;;;;;7.22;63.52;99082.03;114258;1192;64327;-75
2021/04/02 02:32:07;;;;;;;60.87;29.47;;;;;;;7.18;64.22;99080.48;114332;1193;64343;-78
2021/04/02 02:34:35;;;;;;;63.40;29.95;;;;;;;7.12;63.44;99094.11;114575;1193;64384;-80
2021/04/02 02:37:03;;;;;;;54.20;28.13;;;;;;;7.08;63.46;99092.60;114307;1193;64362;-78
2021/04/02 02:39:33;;;;;;;51.90;24.65;;;;;;;7.06;63.67;99091.81;114293;1193;64391;-79
2021/04/02 02:42:05;;;;;;;37.83;20.07;;;;;;;7.01;66.65;99099.20;114299;1193;64359;-79
2021/04/02 02:44:33;;;;;;;24.80;14.80;;;;;;;6.93;64.34;99101.42;114260;1193;64388;-79
2021/04/02 02:47:07;;;;;;;23.77;13.73;;;;;;;6.82;64.17;99098.53;114452;1193;64337;-76
2021/04/02 02:49:36;;;;;;;;;;;;;;;6.75;66.00;99106.84;114620;1199;64471;-78
2021/04/02 02:52:05;;;;;;;28.27;15.60;;;;;;;6.63;66.03;99107.52;114267;1193;64517;-81
2021/04/02 02:54:35;;;;;;;19.97;11.93;;;;;;;6.50;64.86;99101.17;114665;1193;64369;-77
2021/04/02 02:57:04;;;;;;;21.80;12.03;;;;;;;6.41;68.62;99106.96;114259;1193;64384;-77
2021/04/02 02:59:35;;;;;;;20.40;8.00;;;;;;;6.34;66.47;99118.84;114313;1193;64422;-76
2021/04/02 03:02:07;;;;;;;19.83;9.43;;;;;;;6.22;65.46;99115.91;114283;1193;64432;-81
2021/04/02 03:04:35;;;;;;;16.37;11.10;;;;;;;6.17;65.76;99111.78;114352;1193;64547;-82
2021/04/02 03:07:04;;;;;;;15.87;10.53;;;;;;;6.15;65.39;99118.97;114567;1192;64413;-78
2021/04/02 03:09:34;;;;;;;15.33;10.93;;;;;;;6.10;65.82;99121.86;114374;1193;64286;-78
2021/04/02 03:12:03;;;;;;;17.17;11.70;;;;;;;6.04;66.63;99127.48;114330;1192;64301;-84
2021/04/02 03:14:33;;;;;;;18.80;12.90;;;;;;;5.95;66.88;99127.98;114379;1193;64366;-77
2021/04/02 03:17:04;;;;;;;18.23;11.80;;;;;;;5.87;65.65;99128.34;114248;1193;64514;-81
2021/04/02 03:19:36;;;;;;;15.87;11.03;;;;;;;5.84;65.67;99136.44;114267;1193;64365;-78
2021/04/02 03:22:10;;;;;;;18.65;13.35;;;;;;;5.80;65.49;99142.85;114326;1193;64343;-78
2021/04/02 03:24:43;;;;;;;18.70;11.77;;;;;;;5.71;65.58;99143.30;114304;1193;64423;-77
2021/04/02 03:27:14;;;;;;;18.73;13.03;;;;;;;5.65;65.32;99147.12;114293;1193;64362;-82
2021/04/02 03:29:41;;;;;;;17.50;13.37;;;;;;;5.63;65.83;99149.00;114313;1192;64359;-79
2021/04/02 03:32:11;;;;;;;21.63;15.23;;;;;;;5.62;65.98;99151.73;114290;1193;64431;-78
2021/04/02 03:34:40;;;;;;;24.87;16.83;;;;;;;5.58;66.04;99152.81;114290;1193;64343;-82
2021/04/02 03:37:11;;;;;;;31.43;22.17;;;;;;;5.50;66.48;99147.90;114269;1193;64692;-80
2021/04/02 03:39:42;;;;;;;29.20;21.13;;;;;;;5.42;66.08;99153.58;114376;1193;64439;-76
2021/04/02 03:42:12;;;;;;;33.30;24.40;;;;;;;5.41;68.69;99158.97;114248;1193;64339;-78
2021/04/02 03:44:43;;;;;;;32.10;23.70;;;;;;;5.36;66.76;99160.98;114296;1193;64382;-78
2021/04/02 03:47:19;;;;;;;31.40;24.53;;;;;;;5.27;68.17;99167.56;114249;1193;64339;-82
2021/04/02 03:49:51;;;;;;;28.57;20.97;;;;;;;5.21;67.71;99165.20;114267;1193;64720;-78
2021/04/02 03:52:25;;;;;;;27.37;19.13;;;;;;;5.20;66.35;99167.94;114591;1193;64327;-77
2021/04/02 03:54:54;;;;;;;25.90;19.17;;;;;;;5.19;66.91;99163.58;114222;1193;64387;-80
2021/04/02 03:57:25;;;;;;;29.83;22.27;;;;;;;5.16;70.12;99167.25;114292;1193;64333;-79
2021/04/02 03:59:54;;;;;;;29.83;22.33;;;;;;;5.12;67.32;99177.11;114594;1193;64285;-78
2021/04/02 04:02:21;;;;;;;28.97;20.80;;;;;;;5.08;66.80;99175.53;114326;1193;64394;-77
2021/04/02 04:04:53;;;;;;;28.75;21.70;;;;;;;5.04;68.24;99176.63;114352;1193;64835;-76
2021/04/02 04:07:24;;;;;;;21.27;17.57;;;;;;;4.99;67.78;99183.06;114590;1193;64515;-79
2021/04/02 04:09:53;;;;;;;22.87;17.17;;;;;;;4.92;67.37;99179.00;114369;1193;64273;-79
2021/04/02 04:12:23;;;;;;;28.15;17.80;;;;;;;4.87;69.28;99180.06;114265;1193;64352;-78
2021/04/02 04:15:05;;;;;;;20.55;15.75;;;;;;;4.85;67.15;99186.37;114337;1193;64400;-80
2021/04/02 04:17:39;;;;;;;20.70;13.90;;;;;;;4.80;67.32;99178.63;114332;1193;64359;-79
2021/04/02 04:20:11;;;;;;;20.57;15.63;;;;;;;4.75;68.59;99171.84;114424;1193;64403;-81
2021/04/02 04:22:57;;;;;;;23.50;18.67;;;;;;;4.68;68.78;99167.77;114332;1192;64371;-80
2021/04/02 04:25:26;;;;;;;24.80;19.00;;;;;;;4.63;67.54;99165.32;114282;1193;64395;-82
2021/04/02 04:27:56;;;;;;;22.63;17.37;;;;;;;4.65;67.70;99173.21;114274;1193;64378;-79
2021/04/02 04:30:25;;;;;;;22.80;17.20;;;;;;;4.65;68.49;99168.77;114350;1192;64398;-78
2021/04/02 04:32:55;;;;;;;22.23;17.37;;;;;;;4.64;67.26;99168.83;114291;1193;64481;-78
2021/04/02 04:35:23;;;;;;;24.60;18.55;;;;;;;4.63;68.24;99180.34;114250;1193;64455;-78
2021/04/02 04:37:51;;;;;;;25.83;18.37;;;;;;;4.60;67.50;99176.06;114601;1192;64349;-80
2021/04/02 04:40:22;;;;;;;23.17;16.70;;;;;;;4.61;66.81;99178.63;114260;1193;64305;-80
2021/04/02 04:42:49;;;;;;;26.27;17.77;;;;;;;4.59;68.22;99185.78;114340;1192;64487;-80
2021/04/02 04:45:19;;;;;;;27.43;18.23;;;;;;;4.56;67.67;99169.19;114221;1193;64519;-80
2021/04/02 04:47:47;;;;;;;26.13;18.17;;;;;;;4.57;67.52;99178.83;114617;1193;64445;-83
2021/04/02 04:50:16;;;;;;;26.65;16.70;;;;;;;4.60;67.00;99182.20;114320;1192;64327;-79
2021/04/02 04:53:09;;;;;;;22.35;16.60;;;;;;;4.65;66.77;99181.15;114372;1193;64356;-80
2021/04/02 04:55:39;;;;;;;23.47;16.30;;;;;;;4.69;67.66;99180.05;114311;1193;64302;-78
2021/04/02 04:58:10;;;;;;;23.30;18.53;;;;;;;4.68;67.63;99191.57;114645;1193;64487;-82
2021/04/02 05:00:40;;;;;;;24.90;18.23;;;;;;;4.66;67.79;99190.80;114313;1192;64334;-79
2021/04/02 05:03:09;;;;;;;26.80;18.30;;;;;;;4.61;67.75;99190.99;114374;1193;64439;-80
2021/04/02 05:05:38;;;;;;;26.90;15.70;;;;;;;4.62;67.81;99190.06;114270;1193;64359;-78
2021/04/02 05:08:06;;;;;;;23.33;17.20;;;;;;;4.60;67.46;99189.28;114368;1193;64359;-82
2021/04/02 05:10:35;;;;;;;25.43;18.40;;;;;;;4.60;67.68;99200.72;114231;1193;64443;-77
2021/04/02 05:13:03;;;;;;;23.77;17.67;;;;;;;4.61;68.07;99201.58;114640;1192;64346;-80
2021/04/02 05:15:30;;;;;;;25.27;18.57;;;;;;;4.61;67.50;99202.43;114236;1193;64343;-82
2021/04/02 05:17:57;;;;;;;25.60;17.97;;;;;;;4.60;66.83;99202.51;114354;1193;64786;-81
2021/04/02 05:20:37;;;;;;;27.80;18.90;;;;;;;4.63;67.69;99215.58;114329;1193;64349;-82
2021/04/02 05:23:04;;;;;;;22.63;18.93;;;;;;;4.63;68.37;99212.08;114587;1193;64479;-79
2021/04/02 05:25:30;;;;;;;26.97;20.13;;;;;;;4.57;67.92;99207.92;114290;1192;64349;-80
2021/04/02 05:27:58;;;;;;;33.13;17.43;;;;;;;4.59;67.81;99219.31;114232;1193;64369;-84
2021/04/02 05:30:26;;;;;;;22.40;16.35;;;;;;;4.58;67.47;99210.52;114329;1193;64359;-83
2021/04/02 05:32:53;;;;;;;24.80;18.25;;;;;;;4.59;67.64;99222.81;114264;1193;64407;-79
2021/04/02 05:35:20;;;;;;;28.73;18.17;;;;;;;4.58;67.79;99218.45;114261;1193;64464;-80
2021/04/02 05:37:47;;;;;;;22.75;16.15;;;;;;;4.58;67.67;99221.10;114608;1193;64291;-80
2021/04/02 05:40:15;;;;;;;26.20;17.73;;;;;;;4.57;67.23;99221.14;114406;1193;64391;-79
2021/04/02 05:42:52;;;;;;;54.53;31.87;;;;;;;4.59;67.10;99224.60;114429;1192;64330;-80
2021/04/02 05:45:20;;;;;;;35.90;21.10;;;;;;;4.63;67.09;99220.88;114389;1193;64420;-78
2021/04/02 05:47:52;;;;;;;280.97;171.87;;;;;;;4.67;67.19;99221.61;114232;1193;64473;-80
2021/04/02 05:50:20;;;;;;;26.27;20.93;;;;;;;4.71;67.47;99224.05;114336;1192;64371;-79
2021/04/02 05:52:54;;;;;;;22.13;17.33;;;;;;;4.73;67.09;99219.53;114350;1193;64978;-79
2021/04/02 05:55:23;;;;;;;24.60;15.85;;;;;;;4.73;67.54;99219.53;114704;1193;64327;-79
2021/04/02 05:57:50;;;;;;;29.00;19.47;;;;;;;4.67;67.37;99221.61;114368;1192;64375;-78
2021/04/02 06:00:17;;;;;;;29.55;17.10;;;;;;;4.62;67.18;99227.09;114229;1193;64525;-82
2021/04/02 06:02:46;;;;;;;36.60;21.33;;;;;;;4.64;67.40;99221.73;114296;1196;64336;-82
2021/04/02 06:05:12;;;;;;;22.20;15.23;;;;;;;4.64;66.97;99219.94;114271;1192;64362;-79
2021/04/02 06:07:40;;;;;;;25.03;16.40;;;;;;;4.63;66.97;99223.52;114840;1193;64394;-78
2021/04/02 06:10:08;;;;;;;36.97;22.83;;;;;;;4.62;67.15;99224.45;114304;1193;64369;-78
2021/04/02 06:12:40;;;;;;;38.50;22.97;;;;;;;4.59;67.62;99228.10;114411;1193;64479;-79
2021/04/02 06:15:08;;;;;;;22.90;13.93;;;;;;;4.61;67.32;99231.53;114609;1193;64359;-77
2021/04/02 06:17:58;;;;;;;44.87;25.87;;;;;;;4.58;67.36;99229.03;114327;1193;64413;-79
2021/04/02 06:20:30;;;;;;;33.70;22.77;;;;;;;4.56;68.56;99228.22;114623;1193;64346;-78
2021/04/02 06:23:26;;;;;;;23.47;15.60;;;;;;;4.57;67.06;99223.79;114423;1193;64720;-76
2021/04/02 06:26:04;;;;;;;31.33;20.20;;;;;;;4.57;67.59;99232.58;114387;1193;64356;-78
2021/04/02 06:28:33;;;;;;;108.70;54.80;;;;;;;4.61;67.35;99242.11;114394;1193;64339;-78
2021/04/02 06:31:19;;;;;;;49.60;34.73;;;;;;;4.65;67.21;99229.62;114429;1193;64423;-81
2021/04/02 06:33:54;;;;;;;20.90;15.10;;;;;;;4.73;67.25;99230.13;114599;1193;64394;-77
2021/04/02 06:36:29;;;;;;;24.03;16.00;;;;;;;4.76;68.47;99240.55;114631;1192;64771;-84
2021/04/02 06:39:03;;;;;;;22.53;16.30;;;;;;;4.79;67.31;99235.13;114665;1192;64368;-79
2021/04/02 06:41:35;;;;;;;23.55;15.45;;;;;;;4.85;66.97;99232.20;114622;1192;64365;-79
2021/04/02 06:44:05;;;;;;;34.33;27.37;;;;;;;4.84;66.88;99240.22;114486;1193;64433;-81
2021/04/02 06:46:34;;;;;;;30.80;16.10;;;;;;;4.82;67.15;99239.41;114631;1192;64420;-78
2021/04/02 06:49:15;;;;;;;24.03;14.87;;;;;;;4.75;67.38;99237.98;114501;1193;64366;-79
2021/04/02 06:51:45;;;;;;;23.93;15.97;;;;;;;4.67;67.18;99240.13;114522;1193;64911;-80
2021/04/02 06:54:18;;;;;;;24.80;16.87;;;;;;;4.62;67.10;99250.90;114514;1193;64449;-79
2021/04/02 06:56:55;;;;;;;34.25;20.35;;;;;;;4.63;67.35;99255.26;114666;1192;64379;-80
2021/04/02 06:59:26;;;;;;;64.70;35.40;;;;;;;4.68;68.19;99255.06;114489;1193;64375;-79
2021/04/02 07:01:55;;;;;;;80.87;43.13;;;;;;;4.65;67.47;99252.56;114455;1193;64289;-80
2021/04/02 07:04:25;;;;;;;75.43;47.00;;;;;;;4.63;66.88;99259.69;115294;1193;64395;-78
2021/04/02 07:06:54;;;;;;;48.50;29.30;;;;;;;4.66;66.90;99255.14;114669;1193;64317;-80
2021/04/02 07:09:23;;;;;;;25.30;15.07;;;;;;;4.65;66.74;99261.36;114471;1193;64419;-80
2021/04/02 07:11:55;;;;;;;26.07;14.90;;;;;;;4.63;67.37;99259.69;114343;1193;64466;-79
2021/04/02 07:14:23;;;;;;;59.90;15.70;;;;;;;4.68;67.32;99260.35;114389;1193;64371;-78
2021/04/02 07:16:50;;;;;;;38.10;17.67;;;;;;;4.72;67.08;99269.88;114396;1193;64291;-78
2021/04/02 07:19:18;;;;;;;62.30;34.43;;;;;;;4.74;66.93;99268.88;114562;1193;64359;-79
2021/04/02 07:21:49;;;;;;;46.57;23.30;;;;;;;4.75;67.30;99267.94;114329;1193;64426;-79
2021/04/02 07:24:19;;;;;;;40.00;17.47;;;;;;;4.86;67.21;99275.40;114330;1193;64346;-79
2021/04/02 07:26:47;;;;;;;26.40;16.40;;;;;;;4.86;67.17;99283.34;114905;1193;64384;-78
2021/04/02 07:29:17;;;;;;;24.43;15.73;;;;;;;4.82;67.43;99279.10;114385;1193;64305;-81
2021/04/02 07:31:46;;;;;;;25.40;16.20;;;;;;;4.83;67.18;99283.46;114763;1192;64394;-80
2021/04/02 07:34:15;;;;;;;32.73;16.10;;;;;;;4.82;67.34;99281.75;114714;1192;64246;-81
2021/04/02 07:36:42;;;;;;;26.53;16.13;;;;;;;4.80;67.08;99280.97;114403;1193;64356;-81
2021/04/02 07:39:09;;;;;;;32.85;17.25;;;;;;;4.81;67.19;99286.19;114692;1193;64381;-77
2021/04/02 07:41:45;;;;;;;29.47;18.47;;;;;;;4.86;66.90;99286.84;114288;1192;64333;-83
2021/04/02 07:44:18;;;;;;;55.87;34.93;;;;;;;4.89;66.66;99288.48;114260;1193;64350;-80
2021/04/02 07:47:08;;;;;;;32.63;19.83;;;;;;;4.88;66.73;99286.77;114510;1193;64292;-76
2021/04/02 07:49:57;;;;;;;22.07;13.43;;;;;;;4.81;66.62;99293.27;114445;1193;64247;-80
2021/04/02 07:52:40;;;;;;;23.17;15.23;;;;;;;4.84;67.00;99293.14;114315;1193;64375;-82
2021/04/02 07:55:17;;;;;;;34.40;15.10;;;;;;;4.88;66.98;99294.70;114307;1193;64417;-80
2021/04/02 07:57:50;;;;;;;27.73;16.67;;;;;;;4.92;66.65;99301.59;114350;1193;64405;-77
2021/04/02 08:00:21;;;;;;;30.15;18.10;;;;;;;4.89;66.66;99294.63;114279;1193;64426;-83
2021/04/02 08:03:12;;;;;;;32.73;21.10;;;;;;;4.92;66.70;99293.65;114346;1193;64359;-78
2021/04/02 08:05:54;;;;;;;81.50;50.73;;;;;;;4.92;67.03;99295.44;114282;1193;64416;-77
2021/04/02 08:08:24;;;;;;;26.80;18.47;;;;;;;4.94;66.76;99298.86;114410;1193;65624;-77
2021/04/02 08:11:19;;;;;;;24.63;16.23;;;;;;;4.94;66.59;99306.80;114523;1192;64419;-77
2021/04/02 08:13:55;;;;;;;25.53;15.95;;;;;;;5.02;67.01;99302.02;114471;1193;64369;-76
2021/04/02 08:16:31;;;;;;;38.50;25.03;;;;;;;5.04;66.96;99301.03;114515;1193;64382;-77
2021/04/02 08:19:03;;;;;;;20.40;14.10;;;;;;;4.96;66.35;99299.64;114536;1193;64315;-77
2021/04/02 08:21:36;;;;;;;30.17;12.37;;;;;;;5.00;66.35;99294.15;114431;1193;64352;-77
2021/04/02 08:24:08;;;;;;;31.80;16.05;;;;;;;5.00;66.77;99293.30;114449;1193;64324;-81
2021/04/02 08:26:36;;;;;;;24.63;15.40;;;;;;;5.05;66.46;99294.80;114520;1193;64494;-82
2021/04/02 08:29:06;;;;;;;23.70;15.70;;;;;;;5.08;66.90;99294.65;114333;1193;64435;-78
2021/04/02 08:31:34;;;;;;;30.60;21.37;;;;;;;5.12;66.94;99300.67;114267;1193;64349;-81
2021/04/02 08:34:01;;;;;;;25.20;17.50;;;;;;;5.20;66.88;99298.52;114693;1193;64365;-79
2021/04/02 08:36:31;;;;;;;24.85;18.00;;;;;;;5.31;66.61;99300.69;114355;1193;64349;-80
2021/04/02 08:38:58;;;;;;;21.55;16.30;;;;;;;5.34;66.91;99292.58;114353;1193;64337;-80
2021/04/02 08:41:29;;;;;;;23.07;14.90;;;;;;;5.31;66.24;99295.39;114317;1193;64343;-78
2021/04/02 08:43:58;;;;;;;27.73;20.00;;;;;;;5.30;66.69;99299.83;114658;1192;64327;-81
2021/04/02 08:46:45;;;;;;;24.20;14.95;;;;;;;5.34;66.40;99300.52;114351;1192;64443;-80
2021/04/02 08:49:14;;;;;;;45.70;18.40;;;;;;;5.46;66.71;99289.36;114828;1193;64368;-81
2021/04/02 08:51:50;;;;;;;24.15;14.45;;;;;;;5.55;66.52;99294.23;114343;1193;64295;-80
2021/04/02 08:54:22;;;;;;;28.75;16.60;;;;;;;5.63;66.64;99299.16;114219;1193;64464;-85
2021/04/02 08:56:49;;;;;;;38.10;29.70;;;;;;;5.74;66.15;99298.66;114345;1192;64365;-80
2021/04/02 08:59:18;;;;;;;31.30;20.90;;;;;;;5.74;65.87;99302.16;114669;1193;64493;-82
2021/04/02 09:01:50;;;;;;;26.40;19.37;;;;;;;5.86;66.99;99298.05;114352;1193;64439;-82
2021/04/02 09:04:20;;;;;;;40.33;22.63;;;;;;;5.84;65.77;99294.60;114463;1193;64423;-84
2021/04/02 09:06:47;;;;;;;34.75;21.00;;;;;;;5.81;66.29;99300.06;114744;1193;64394;-84
2021/04/02 09:09:20;;;;;;;20.20;13.13;;;;;;;5.84;66.02;99295.45;114323;1193;64496;-84
2021/04/02 09:11:53;;;;;;;25.00;16.13;;;;;;;5.94;65.93;99295.91;114287;1193;64455;-84
2021/04/02 09:14:20;;;;;;;64.77;32.83;;;;;;;6.04;66.53;99291.85;114339;1193;64340;-79
2021/04/02 09:16:53;;;;;;;45.17;25.03;;;;;;;6.19;66.51;99290.25;114973;1193;64784;-81
2021/04/02 09:19:22;;;;;;;54.10;28.40;;;;;;;6.29;65.95;99298.58;114343;1193;64375;-81
2021/04/02 09:21:52;;;;;;;32.75;17.60;;;;;;;6.32;66.37;99293.13;114271;1193;64366;-82
2021/04/02 09:24:19;;;;;;;52.45;24.55;;;;;;;6.22;65.29;99292.73;114382;1193;64461;-81
2021/04/02 09:26:46;;;;;;;18.13;11.13;;;;;;;6.18;66.06;99289.39;114354;1193;64380;-84
2021/04/02 09:29:16;;;;;;;24.83;14.40;;;;;;;6.03;65.88;99289.28;114294;1193;64445;-79
2021/04/02 09:31:43;;;;;;;64.10;25.00;;;;;;;5.97;65.60;99287.79;114332;1193;64285;-84
2021/04/02 09:34:19;;;;;;;28.80;17.55;;;;;;;5.99;66.53;99280.64;114243;1193;64462;-84
2021/04/02 09:36:47;;;;;;;;;;;;;;;5.92;66.26;99279.23;114383;1201;64340;-82
2021/04/02 09:39:16;;;;;;;22.97;13.40;;;;;;;6.00;66.29;99281.50;114875;1193;64368;-83
2021/04/02 09:41:53;;;;;;;26.47;14.53;;;;;;;6.07;66.08;99281.11;114421;1192;64343;-82
2021/04/02 09:44:28;;;;;;;44.07;27.00;;;;;;;6.18;66.51;99278.78;114357;1193;64417;-78
2021/04/02 09:47:09;;;;;;;38.80;27.37;;;;;;;6.27;66.00;99274.80;114421;1193;64425;-79
2021/04/02 09:49:37;;;;;;;40.25;21.30;;;;;;;6.37;65.82;99280.50;114984;1192;64295;-79
2021/04/02 09:52:07;;;;;;;90.83;43.30;;;;;;;6.44;65.49;99273.94;114284;1193;64355;-83
2021/04/02 09:54:38;;;;;;;95.90;61.40;;;;;;;6.39;65.92;99268.86;114404;1192;64411;-80
2021/04/02 09:57:08;;;;;;;110.03;68.10;;;;;;;6.52;66.62;99253.16;114347;1193;64359;-82
2021/04/02 09:59:36;;;;;;;50.43;24.43;;;;;;;6.69;65.81;99258.45;114867;1192;64295;-80
2021/04/02 10:02:04;;;;;;;60.47;25.93;;;;;;;6.70;65.10;99254.85;114501;1192;64382;-84
2021/04/02 10:04:31;;;;;;;31.93;23.03;;;;;;;6.84;66.16;99253.26;114388;1193;64375;-81
2021/04/02 10:06:59;;;;;;;55.50;34.00;;;;;;;6.97;66.31;99254.30;114705;1193;64355;-81
2021/04/02 10:09:28;;;;;;;117.37;40.53;;;;;;;6.98;65.14;99251.56;114419;1193;64356;-85
2021/04/02 10:11:55;;;;;;;55.63;38.10;;;;;;;6.94;65.35;99241.22;114399;1193;64394;-84
2021/04/02 10:14:22;;;;;;;33.27;18.40;;;;;;;6.94;65.43;99250.03;114324;1193;64497;-82
2021/04/02 10:16:48;;;;;;;23.10;15.85;;;;;;;6.88;65.06;99242.40;114396;1193;64445;-84
2021/04/02 10:19:16;;;;;;;22.40;15.53;;;;;;;6.83;65.18;99241.78;114373;1193;64464;-82
2021/04/02 10:21:44;;;;;;;238.30;120.60;;;;;;;6.81;65.36;99234.82;114419;1193;64316;-80
2021/04/02 10:24:11;;;;;;;38.90;23.65;;;;;;;6.85;64.67;99233.73;114393;1193;64430;-80
2021/04/02 10:26:38;;;;;;;54.70;29.20;;;;;;;6.82;65.58;99236.56;114371;1192;64519;-81
2021/04/02 10:29:05;;;;;;;29.53;19.07;;;;;;;6.91;65.45;99236.05;114911;1193;64426;-80
2021/04/02 10:31:32;;;;;;;35.47;21.60;;;;;;;6.96;65.72;99245.48;114688;1193;64438;-81
2021/04/02 10:33:59;;;;;;;24.50;15.63;;;;;;;6.96;65.20;99239.33;114347;1192;64331;-79
2021/04/02 10:36:25;;;;;;;34.57;19.93;;;;;;;6.81;65.31;99242.78;114356;1193;64359;-85
2021/04/02 10:38:52;;;;;;;64.75;25.65;;;;;;;6.75;64.89;99244.86;114356;1193;64618;-82
2021/04/02 10:41:19;;;;;;;26.37;16.73;;;;;;;6.85;65.17;99241.70;114403;1193;64423;-85
2021/04/02 10:43:46;;;;;;;33.57;24.30;;;;;;;6.82;64.75;99239.22;114356;1193;64433;-82
2021/04/02 10:46:13;;;;;;;74.50;41.17;;;;;;;7.00;65.70;99244.39;114298;1193;64429;-81
2021/04/02 10:48:40;;;;;;;51.87;30.20;;;;;;;7.05;65.88;99244.97;114362;1193;64512;-81
2021/04/02 10:51:08;;;;;;;85.53;43.30;;;;;;;7.16;65.29;99233.77;114378;1193;64521;-81
2021/04/02 10:53:36;;;;;;;45.60;24.15;;;;;;;7.18;65.70;99242.50;114356;1193;64397;-79
2021/04/02 10:56:05;;;;;;;70.70;38.50;;;;;;;7.00;65.49;99240.88;114275;1192;64353;-80
2021/04/02 10:58:33;;;;;;;43.53;24.47;;;;;;;6.97;65.75;99243.69;114515;1193;64362;-80
2021/04/02 11:01:00;;;;;;;38.00;23.25;;;;;;;6.99;64.94;99241.80;114353;1193;64400;-81
2021/04/02 11:03:29;;;;;;;55.73;28.83;;;;;;;7.02;64.68;99244.30;114264;1193;64915;-85
2021/04/02 11:05:56;;;;;;;60.00;32.30;;;;;;;7.15;65.27;99232.06;114380;1193;64337;-83
2021/04/02 11:08:23;;;;;;;36.13;22.77;;;;;;;7.52;65.14;99225.55;114331;1193;64307;-81
2021/04/02 11:10:50;;;;;;;41.87;24.20;;;;;;;7.93;64.87;99226.75;114315;1193;64464;-79
2021/04/02 11:13:16;;;;;;;33.70;18.73;;;;;;;8.35;64.59;99213.59;114349;1193;64417;-80
2021/04/02 11:15:43;;;;;;;27.20;17.80;;;;;;;8.57;64.70;99214.94;114277;1193;64448;-78
2021/04/02 11:18:10;;;;;;;45.80;21.97;;;;;;;8.84;64.29;99205.27;114650;1193;64372;-79
2021/04/02 11:20:37;;;;;;;33.57;18.73;;;;;;;9.05;64.32;99207.53;114334;1193;64416;-82
2021/04/02 11:23:03;;;;;;;40.03;30.17;;;;;;;9.10;63.87;99206.28;114395;1193;64247;-78
2021/04/02 11:25:30;;;;;;;30.87;21.93;;;;;;;9.11;63.46;99191.15;114322;1192;64480;-80
2021/04/02 11:27:57;;;;;;;26.07;18.83;;;;;;;9.30;64.33;99191.68;114296;1193;64446;-78
2021/04/02 11:30:24;;;;;;;30.80;19.40;;;;;;;9.46;64.06;99187.05;114382;1193;64366;-81
2021/04/02 11:32:51;;;;;;;25.87;16.60;;;;;;;9.67;63.84;99189.25;114566;1193;64433;-78